Hovedside
METAR-TAF:

METAR-TAF

Lufthavner :

Vadsø, Norge

Vadsø lufthavn

breddegrad: 70-04N, lengdegrad: 029-51E, høyde over havet: 3 m

Gjeldene værobservasjon

Denne rapporten ble laget for 41 minutter siden, klokken 13:50 UTC
Vind 6 kt fra Nordvest
Temperatur -5°C
Luftfuktighet 93%
Trykk 1025 hPa
Sikt 10 km eller mer
Brutte skyer i en høyde av 400 ft

METAR: ENVD 221350Z 32006KT 9999 BKN004 M05/M06 Q1025

Tid: 15:31 (14:31 UTC)

Varsel

Denne rapporten ble laget for 3 timer og 31 minutter siden, klokken 11:00 UTC
Varsel gyldig fra 22. klokken 12 UTC til 22. klokken 21 UTC
Vind 8 kt fra Vest-nordvest
Sikt 10 km eller mer
Spredte skyer i en høyde av 3000 ft
Midlertidig
fra 22. klokken 12 UTC til 22. klokken 21 UTC
Brutte skyer i en høyde av 3000 ft, Bygeskyer.
Midlertidig
fra 22. klokken 12 UTC til 22. klokken 21 UTC
Vind 12 kt fra Nordøst
Sikt: 3000 m
i en høyde av 1200 ft
lette snøbyger

TAF: ENVD 221100Z 2212/2221 30008KT 9999 SCT030 TEMPO 2212/2221 BKN030CB TEMPO 2212/2221 04012KT 3000 -SHSN VV012

Værobservasjoner og værvarsel for over 4000 flyplasser (METAR- og TAF-rapporter).

Tilgjengelige stasjoner er representert av de røde og gule prikkene på kartet.

Hold musepekeren over prikken for å se navnet på stasjonen.

Klikk så for å se værobservasjoner og -varsler.

For å forandre kartet kan du klikke på den grønne knappen med svart kryss for å zoome inn, på den grønne knappen med strek for å zoome ut, eller på de grønne pilene for å se tilstøtende kart.


METAR-TAF: